createdAt,value
2018-12-20T00:00:03.485Z,-0.8
2018-12-20T00:15:02.772Z,-0.8
2018-12-20T00:30:03.370Z,-0.8
2018-12-20T00:45:02.657Z,-0.9
2018-12-20T01:00:03.667Z,-0.8
2018-12-20T01:15:02.623Z,-0.8
2018-12-20T01:30:03.023Z,-0.8
2018-12-20T01:45:03.516Z,-0.7
2018-12-20T02:00:02.911Z,-0.7
2018-12-20T02:15:03.242Z,-0.6
2018-12-20T02:30:03.392Z,-0.6
2018-12-20T02:45:10.460Z,-0.4
2018-12-20T03:00:02.559Z,-0.4
2018-12-20T03:15:02.950Z,-0.4
2018-12-20T03:30:03.665Z,-0.3
2018-12-20T03:45:02.977Z,-0.3
2018-12-20T04:00:03.312Z,-0.2
2018-12-20T04:15:02.494Z,-0.2
2018-12-20T04:30:03.098Z,-0.2
2018-12-20T04:45:03.490Z,-0.1
2018-12-20T05:00:02.611Z,-0.1
2018-12-20T05:15:02.979Z,-0.1
2018-12-20T05:30:03.443Z,0
2018-12-20T05:45:02.973Z,0
2018-12-20T06:00:03.254Z,0.1
2018-12-20T06:15:02.571Z,0.1
2018-12-20T06:30:03.103Z,0.1
2018-12-20T06:45:02.563Z,0.1
2018-12-20T07:00:02.961Z,0.1
2018-12-20T07:15:03.279Z,0.2
2018-12-20T07:30:02.724Z,0.1
2018-12-20T07:45:02.903Z,0.2
2018-12-20T08:00:03.218Z,0.3
2018-12-20T08:15:02.485Z,0.4
2018-12-20T08:30:02.880Z,0.4
2018-12-20T08:45:03.355Z,0.8
2018-12-20T09:00:02.648Z,1.2
2018-12-20T09:15:03.092Z,1.9
2018-12-20T09:30:03.348Z,2.6
2018-12-20T09:45:02.574Z,3
2018-12-20T10:00:02.897Z,3.2
2018-12-20T10:15:03.166Z,3.4
2018-12-20T10:30:02.591Z,4
2018-12-20T10:45:02.886Z,4.6
2018-12-20T11:00:03.211Z,5.5
2018-12-20T11:15:02.463Z,5.8
2018-12-20T11:30:03.150Z,5.9
2018-12-20T11:45:03.457Z,6.2
2018-12-20T12:00:02.762Z,6.2
2018-12-20T12:15:02.979Z,6.4
2018-12-20T12:30:03.379Z,6.7
2018-12-20T12:45:02.651Z,7.1
2018-12-20T13:00:02.963Z,7.2
2018-12-20T13:15:02.490Z,7.7
2018-12-20T13:30:02.893Z,7.2
2018-12-20T13:45:03.193Z,7.3
2018-12-20T14:00:02.502Z,7.3
2018-12-20T14:15:02.883Z,7.1
2018-12-20T14:30:03.275Z,6.8
2018-12-20T14:45:02.641Z,6.1
2018-12-20T15:00:02.909Z,5.4
2018-12-20T15:15:03.191Z,4.8
2018-12-20T15:30:02.601Z,4.4
2018-12-20T15:45:03.146Z,4.1
2018-12-20T16:00:02.492Z,3.6
2018-12-20T16:15:02.936Z,3.1
2018-12-20T16:30:03.364Z,2.6
2018-12-20T16:45:02.645Z,2.3
2018-12-20T17:00:02.900Z,2.1
2018-12-20T17:15:03.132Z,2.1
2018-12-20T17:30:02.454Z,1.8
2018-12-20T17:45:02.814Z,1.6
2018-12-20T18:00:02.455Z,1.6
2018-12-20T18:15:02.920Z,1.5
2018-12-20T18:30:02.448Z,1.4
2018-12-20T18:45:02.809Z,1.4
2018-12-20T19:00:03.141Z,1.8
2018-12-20T19:15:02.611Z,1.8
2018-12-20T19:30:02.941Z,1.6
2018-12-20T19:45:03.230Z,1.8
2018-12-20T20:00:02.577Z,1.7
2018-12-20T20:15:03.209Z,1.5
2018-12-20T20:30:02.727Z,1.6
2018-12-20T20:45:03.066Z,1.6
2018-12-20T21:00:03.378Z,1.5
2018-12-20T21:15:02.764Z,1.4
2018-12-20T21:30:03.358Z,1.1
2018-12-20T21:45:02.751Z,1.1
2018-12-20T22:00:03.071Z,1.1
2018-12-20T22:15:03.382Z,1.3
2018-12-20T22:30:02.971Z,1.8
2018-12-20T22:45:03.373Z,2
2018-12-20T23:00:03.236Z,2.1
2018-12-20T23:15:03.313Z,1.8
2018-12-20T23:30:02.530Z,1.6
2018-12-20T23:45:02.865Z,1.6
